sensor_id;sensor_type;location;lat;lon;timestamp;temperature;humidity
8172;DHT22;4127;47.908;10.850;2023-10-31T00:00:17;9.00;99.90
8172;DHT22;4127;47.908;10.850;2023-10-31T00:02:44;9.00;99.90
8172;DHT22;4127;47.908;10.850;2023-10-31T00:05:11;9.00;99.90
8172;DHT22;4127;47.908;10.850;2023-10-31T00:07:38;9.00;99.90
8172;DHT22;4127;47.908;10.850;2023-10-31T00:10:05;9.00;99.90
8172;DHT22;4127;47.908;10.850;2023-10-31T00:12:32;9.00;99.90
8172;DHT22;4127;47.908;10.850;2023-10-31T00:14:59;9.00;99.90
8172;DHT22;4127;47.908;10.850;2023-10-31T00:17:26;9.00;99.90
8172;DHT22;4127;47.908;10.850;2023-10-31T00:19:53;9.00;99.90
8172;DHT22;4127;47.908;10.850;2023-10-31T00:22:20;9.00;99.90
8172;DHT22;4127;47.908;10.850;2023-10-31T00:24:47;8.90;99.90
8172;DHT22;4127;47.908;10.850;2023-10-31T00:27:14;9.00;99.90
8172;DHT22;4127;47.908;10.850;2023-10-31T00:29:41;8.90;99.90
8172;DHT22;4127;47.908;10.850;2023-10-31T00:32:08;8.90;99.90
8172;DHT22;4127;47.908;10.850;2023-10-31T00:34:35;8.90;99.90
8172;DHT22;4127;47.908;10.850;2023-10-31T00:37:03;8.90;99.90
8172;DHT22;4127;47.908;10.850;2023-10-31T00:39:30;8.90;99.90
8172;DHT22;4127;47.908;10.850;2023-10-31T00:41:56;8.90;99.90
8172;DHT22;4127;47.908;10.850;2023-10-31T00:44:23;8.90;99.90
8172;DHT22;4127;47.908;10.850;2023-10-31T00:46:50;8.90;99.90
8172;DHT22;4127;47.908;10.850;2023-10-31T00:49:18;8.80;99.90
8172;DHT22;4127;47.908;10.850;2023-10-31T00:51:45;8.80;99.90
8172;DHT22;4127;47.908;10.850;2023-10-31T00:54:11;8.80;99.90
8172;DHT22;4127;47.908;10.850;2023-10-31T00:56:38;8.80;99.90
8172;DHT22;4127;47.908;10.850;2023-10-31T00:59:05;8.80;99.90
8172;DHT22;4127;47.908;10.850;2023-10-31T01:01:32;8.70;99.90
8172;DHT22;4127;47.908;10.850;2023-10-31T01:03:59;8.80;99.90
8172;DHT22;4127;47.908;10.850;2023-10-31T01:06:26;8.70;99.90
8172;DHT22;4127;47.908;10.850;2023-10-31T01:08:53;8.70;99.90
8172;DHT22;4127;47.908;10.850;2023-10-31T01:11:20;8.70;99.90
8172;DHT22;4127;47.908;10.850;2023-10-31T01:13:47;8.70;99.90
8172;DHT22;4127;47.908;10.850;2023-10-31T01:16:14;8.70;99.90
8172;DHT22;4127;47.908;10.850;2023-10-31T01:18:40;8.70;99.90
8172;DHT22;4127;47.908;10.850;2023-10-31T01:21:07;8.70;99.90
8172;DHT22;4127;47.908;10.850;2023-10-31T01:23:35;8.70;99.90
8172;DHT22;4127;47.908;10.850;2023-10-31T01:26:02;8.70;99.90
8172;DHT22;4127;47.908;10.850;2023-10-31T01:28:29;8.70;99.90
8172;DHT22;4127;47.908;10.850;2023-10-31T01:30:56;8.60;99.90
8172;DHT22;4127;47.908;10.850;2023-10-31T01:33:23;8.60;99.90
8172;DHT22;4127;47.908;10.850;2023-10-31T01:35:50;8.60;99.90
8172;DHT22;4127;47.908;10.850;2023-10-31T01:38:17;8.60;99.90
8172;DHT22;4127;47.908;10.850;2023-10-31T01:40:44;8.50;99.90
8172;DHT22;4127;47.908;10.850;2023-10-31T01:43:12;8.50;99.90
8172;DHT22;4127;47.908;10.850;2023-10-31T01:45:39;8.50;99.90
8172;DHT22;4127;47.908;10.850;2023-10-31T01:48:06;8.50;99.90
8172;DHT22;4127;47.908;10.850;2023-10-31T01:50:33;8.50;99.90
8172;DHT22;4127;47.908;10.850;2023-10-31T01:53:00;8.50;99.90
8172;DHT22;4127;47.908;10.850;2023-10-31T01:55:27;8.50;99.90
8172;DHT22;4127;47.908;10.850;2023-10-31T01:57:56;8.50;99.90
8172;DHT22;4127;47.908;10.850;2023-10-31T02:00:23;8.50;99.90
8172;DHT22;4127;47.908;10.850;2023-10-31T02:02:52;8.50;99.90
8172;DHT22;4127;47.908;10.850;2023-10-31T02:05:20;8.50;99.90
8172;DHT22;4127;47.908;10.850;2023-10-31T02:07:47;8.50;99.90
8172;DHT22;4127;47.908;10.850;2023-10-31T02:10:14;8.50;99.90
8172;DHT22;4127;47.908;10.850;2023-10-31T02:12:41;8.50;99.90
8172;DHT22;4127;47.908;10.850;2023-10-31T02:15:08;8.50;99.90
8172;DHT22;4127;47.908;10.850;2023-10-31T02:17:35;8.50;99.90
8172;DHT22;4127;47.908;10.850;2023-10-31T02:20:02;8.40;99.90
8172;DHT22;4127;47.908;10.850;2023-10-31T02:22:29;8.50;99.90
8172;DHT22;4127;47.908;10.850;2023-10-31T02:24:56;8.40;99.90
8172;DHT22;4127;47.908;10.850;2023-10-31T02:27:23;8.50;99.90
8172;DHT22;4127;47.908;10.850;2023-10-31T02:29:50;8.50;99.90
8172;DHT22;4127;47.908;10.850;2023-10-31T02:32:17;8.50;99.90
8172;DHT22;4127;47.908;10.850;2023-10-31T02:34:45;8.50;99.90
8172;DHT22;4127;47.908;10.850;2023-10-31T02:37:12;8.50;99.90
8172;DHT22;4127;47.908;10.850;2023-10-31T02:39:39;8.50;99.90
8172;DHT22;4127;47.908;10.850;2023-10-31T02:42:06;8.50;99.90
8172;DHT22;4127;47.908;10.850;2023-10-31T02:44:33;8.50;99.90
8172;DHT22;4127;47.908;10.850;2023-10-31T02:47:00;8.50;99.90
8172;DHT22;4127;47.908;10.850;2023-10-31T02:49:27;8.50;99.90
8172;DHT22;4127;47.908;10.850;2023-10-31T02:51:54;8.50;99.90
8172;DHT22;4127;47.908;10.850;2023-10-31T02:54:21;8.50;99.90
8172;DHT22;4127;47.908;10.850;2023-10-31T02:56:48;8.50;99.90
8172;DHT22;4127;47.908;10.850;2023-10-31T02:59:14;8.50;99.90
8172;DHT22;4127;47.908;10.850;2023-10-31T03:01:42;8.50;99.90
8172;DHT22;4127;47.908;10.850;2023-10-31T03:04:09;8.50;99.90
8172;DHT22;4127;47.908;10.850;2023-10-31T03:06:36;8.50;99.90
8172;DHT22;4127;47.908;10.850;2023-10-31T03:09:03;8.50;99.90
8172;DHT22;4127;47.908;10.850;2023-10-31T03:11:30;8.50;99.90
8172;DHT22;4127;47.908;10.850;2023-10-31T03:13:59;8.60;99.90
8172;DHT22;4127;47.908;10.850;2023-10-31T03:16:26;8.60;99.90
8172;DHT22;4127;47.908;10.850;2023-10-31T03:18:53;8.50;99.90
8172;DHT22;4127;47.908;10.850;2023-10-31T03:21:20;8.50;99.90
8172;DHT22;4127;47.908;10.850;2023-10-31T03:23:49;8.50;99.90
8172;DHT22;4127;47.908;10.850;2023-10-31T03:26:16;8.50;99.90
8172;DHT22;4127;47.908;10.850;2023-10-31T03:28:44;8.50;99.90
8172;DHT22;4127;47.908;10.850;2023-10-31T03:31:12;8.40;99.90
8172;DHT22;4127;47.908;10.850;2023-10-31T03:33:40;8.40;99.90
8172;DHT22;4127;47.908;10.850;2023-10-31T03:36:08;8.40;99.90
8172;DHT22;4127;47.908;10.850;2023-10-31T03:38:36;8.40;99.90
8172;DHT22;4127;47.908;10.850;2023-10-31T03:41:03;8.30;99.90
8172;DHT22;4127;47.908;10.850;2023-10-31T03:43:30;8.30;99.90
8172;DHT22;4127;47.908;10.850;2023-10-31T03:45:57;8.30;99.90
8172;DHT22;4127;47.908;10.850;2023-10-31T03:48:24;8.30;99.90
8172;DHT22;4127;47.908;10.850;2023-10-31T03:50:51;8.30;99.90
8172;DHT22;4127;47.908;10.850;2023-10-31T03:53:18;8.30;99.90
8172;DHT22;4127;47.908;10.850;2023-10-31T03:55:45;8.30;99.90
8172;DHT22;4127;47.908;10.850;2023-10-31T03:58:12;8.20;99.90
8172;DHT22;4127;47.908;10.850;2023-10-31T04:00:39;8.20;99.90
8172;DHT22;4127;47.908;10.850;2023-10-31T04:03:08;8.20;99.90
8172;DHT22;4127;47.908;10.850;2023-10-31T04:05:35;8.20;99.90
8172;DHT22;4127;47.908;10.850;2023-10-31T04:08:02;8.20;99.90
8172;DHT22;4127;47.908;10.850;2023-10-31T04:10:29;8.20;99.90
8172;DHT22;4127;47.908;10.850;2023-10-31T04:12:56;8.20;99.90
8172;DHT22;4127;47.908;10.850;2023-10-31T04:15:23;8.20;99.90
8172;DHT22;4127;47.908;10.850;2023-10-31T04:17:50;8.20;99.90
8172;DHT22;4127;47.908;10.850;2023-10-31T04:20:17;8.10;99.90
8172;DHT22;4127;47.908;10.850;2023-10-31T04:22:44;8.20;99.90
8172;DHT22;4127;47.908;10.850;2023-10-31T04:25:10;8.20;99.90
8172;DHT22;4127;47.908;10.850;2023-10-31T04:27:38;8.20;99.90
8172;DHT22;4127;47.908;10.850;2023-10-31T04:30:05;8.10;99.90
8172;DHT22;4127;47.908;10.850;2023-10-31T04:32:32;8.20;99.90
8172;DHT22;4127;47.908;10.850;2023-10-31T04:34:59;8.20;99.90
8172;DHT22;4127;47.908;10.850;2023-10-31T04:37:26;8.20;99.90
8172;DHT22;4127;47.908;10.850;2023-10-31T04:39:54;8.20;99.90
8172;DHT22;4127;47.908;10.850;2023-10-31T04:42:20;8.30;99.90
8172;DHT22;4127;47.908;10.850;2023-10-31T04:44:49;8.20;99.90
8172;DHT22;4127;47.908;10.850;2023-10-31T04:47:16;8.30;99.90
8172;DHT22;4127;47.908;10.850;2023-10-31T04:49:43;8.30;99.90
8172;DHT22;4127;47.908;10.850;2023-10-31T04:52:10;8.30;99.90
8172;DHT22;4127;47.908;10.850;2023-10-31T04:54:37;8.30;99.90
8172;DHT22;4127;47.908;10.850;2023-10-31T04:57:04;8.30;99.90
8172;DHT22;4127;47.908;10.850;2023-10-31T04:59:30;8.30;99.90
8172;DHT22;4127;47.908;10.850;2023-10-31T05:01:58;8.30;99.90
8172;DHT22;4127;47.908;10.850;2023-10-31T05:04:25;8.20;99.90
8172;DHT22;4127;47.908;10.850;2023-10-31T05:06:53;8.30;99.90
8172;DHT22;4127;47.908;10.850;2023-10-31T05:09:20;8.30;99.90
8172;DHT22;4127;47.908;10.850;2023-10-31T05:11:47;8.30;99.90
8172;DHT22;4127;47.908;10.850;2023-10-31T05:14:14;8.30;99.90
8172;DHT22;4127;47.908;10.850;2023-10-31T05:16:42;8.30;99.90
8172;DHT22;4127;47.908;10.850;2023-10-31T05:19:10;8.20;99.90
8172;DHT22;4127;47.908;10.850;2023-10-31T05:21:37;8.30;99.90
8172;DHT22;4127;47.908;10.850;2023-10-31T05:24:04;8.30;99.90
8172;DHT22;4127;47.908;10.850;2023-10-31T05:26:32;8.20;99.90
8172;DHT22;4127;47.908;10.850;2023-10-31T05:28:58;8.20;99.90
8172;DHT22;4127;47.908;10.850;2023-10-31T05:31:25;8.20;99.90
8172;DHT22;4127;47.908;10.850;2023-10-31T05:33:52;8.30;99.90
8172;DHT22;4127;47.908;10.850;2023-10-31T05:36:24;8.20;99.90
8172;DHT22;4127;47.908;10.850;2023-10-31T05:38:51;8.20;99.90
8172;DHT22;4127;47.908;10.850;2023-10-31T05:41:18;8.20;99.90
8172;DHT22;4127;47.908;10.850;2023-10-31T05:43:45;8.30;99.90
8172;DHT22;4127;47.908;10.850;2023-10-31T05:46:12;8.30;99.90
8172;DHT22;4127;47.908;10.850;2023-10-31T05:48:46;8.30;99.90
8172;DHT22;4127;47.908;10.850;2023-10-31T05:51:15;8.30;99.90
8172;DHT22;4127;47.908;10.850;2023-10-31T05:53:45;8.30;99.90
8172;DHT22;4127;47.908;10.850;2023-10-31T05:56:13;8.30;99.90
8172;DHT22;4127;47.908;10.850;2023-10-31T05:58:41;8.40;99.90
8172;DHT22;4127;47.908;10.850;2023-10-31T06:01:08;8.40;99.90
8172;DHT22;4127;47.908;10.850;2023-10-31T06:03:37;8.40;99.90
8172;DHT22;4127;47.908;10.850;2023-10-31T06:06:07;8.40;99.90
8172;DHT22;4127;47.908;10.850;2023-10-31T06:08:35;8.40;99.90
8172;DHT22;4127;47.908;10.850;2023-10-31T06:11:03;8.40;99.90
8172;DHT22;4127;47.908;10.850;2023-10-31T06:13:30;8.30;99.90
8172;DHT22;4127;47.908;10.850;2023-10-31T06:15:59;8.30;99.90
8172;DHT22;4127;47.908;10.850;2023-10-31T06:18:28;8.30;99.90
8172;DHT22;4127;47.908;10.850;2023-10-31T06:20:55;8.30;99.90
8172;DHT22;4127;47.908;10.850;2023-10-31T06:23:23;8.30;99.90
8172;DHT22;4127;47.908;10.850;2023-10-31T06:25:50;8.30;99.90
8172;DHT22;4127;47.908;10.850;2023-10-31T06:28:18;8.30;99.90
8172;DHT22;4127;47.908;10.850;2023-10-31T06:30:45;8.30;99.90
8172;DHT22;4127;47.908;10.850;2023-10-31T06:33:12;8.30;99.90
8172;DHT22;4127;47.908;10.850;2023-10-31T06:35:39;8.30;99.90
8172;DHT22;4127;47.908;10.850;2023-10-31T06:38:06;8.30;99.90
8172;DHT22;4127;47.908;10.850;2023-10-31T06:40:33;8.20;99.90
8172;DHT22;4127;47.908;10.850;2023-10-31T06:43:01;8.20;99.90
8172;DHT22;4127;47.908;10.850;2023-10-31T06:45:28;8.20;99.90
8172;DHT22;4127;47.908;10.850;2023-10-31T06:47:55;8.20;99.90
8172;DHT22;4127;47.908;10.850;2023-10-31T06:50:22;8.10;99.90
8172;DHT22;4127;47.908;10.850;2023-10-31T06:52:49;8.10;99.90
8172;DHT22;4127;47.908;10.850;2023-10-31T06:55:16;8.10;99.90
8172;DHT22;4127;47.908;10.850;2023-10-31T06:57:43;8.10;99.90
8172;DHT22;4127;47.908;10.850;2023-10-31T07:00:11;8.10;99.90
8172;DHT22;4127;47.908;10.850;2023-10-31T07:02:38;8.10;99.90
8172;DHT22;4127;47.908;10.850;2023-10-31T07:05:07;8.10;99.90
8172;DHT22;4127;47.908;10.850;2023-10-31T07:07:34;8.10;99.90
8172;DHT22;4127;47.908;10.850;2023-10-31T07:10:01;8.10;99.90
8172;DHT22;4127;47.908;10.850;2023-10-31T07:12:28;8.20;99.90
8172;DHT22;4127;47.908;10.850;2023-10-31T07:14:55;8.20;99.90
8172;DHT22;4127;47.908;10.850;2023-10-31T07:17:22;8.20;99.90
8172;DHT22;4127;47.908;10.850;2023-10-31T07:19:49;8.20;99.90
8172;DHT22;4127;47.908;10.850;2023-10-31T07:22:16;8.30;99.90
8172;DHT22;4127;47.908;10.850;2023-10-31T07:24:43;8.20;99.90
8172;DHT22;4127;47.908;10.850;2023-10-31T07:27:10;8.30;99.90
8172;DHT22;4127;47.908;10.850;2023-10-31T07:29:40;8.20;99.90
8172;DHT22;4127;47.908;10.850;2023-10-31T07:32:08;8.30;99.90
8172;DHT22;4127;47.908;10.850;2023-10-31T07:34:39;8.30;99.90
8172;DHT22;4127;47.908;10.850;2023-10-31T07:37:06;8.30;99.90
8172;DHT22;4127;47.908;10.850;2023-10-31T07:39:33;8.30;99.90
8172;DHT22;4127;47.908;10.850;2023-10-31T07:42:00;8.30;99.90
8172;DHT22;4127;47.908;10.850;2023-10-31T07:44:28;8.30;99.90
8172;DHT22;4127;47.908;10.850;2023-10-31T07:46:55;8.30;99.90
8172;DHT22;4127;47.908;10.850;2023-10-31T07:49:22;8.30;99.90
8172;DHT22;4127;47.908;10.850;2023-10-31T07:51:49;8.40;99.90
8172;DHT22;4127;47.908;10.850;2023-10-31T07:54:16;8.40;99.90
8172;DHT22;4127;47.908;10.850;2023-10-31T07:56:43;8.40;99.90
8172;DHT22;4127;47.908;10.850;2023-10-31T07:59:10;8.40;99.90
8172;DHT22;4127;47.908;10.850;2023-10-31T08:01:38;8.40;99.90
8172;DHT22;4127;47.908;10.850;2023-10-31T08:04:05;8.40;99.90
8172;DHT22;4127;47.908;10.850;2023-10-31T08:06:32;8.50;99.90
8172;DHT22;4127;47.908;10.850;2023-10-31T08:08:59;8.50;99.90
8172;DHT22;4127;47.908;10.850;2023-10-31T08:11:26;8.50;99.90
8172;DHT22;4127;47.908;10.850;2023-10-31T08:13:53;8.60;99.90
8172;DHT22;4127;47.908;10.850;2023-10-31T08:16:20;8.70;99.90
8172;DHT22;4127;47.908;10.850;2023-10-31T08:18:48;8.60;99.90
8172;DHT22;4127;47.908;10.850;2023-10-31T08:21:15;8.70;99.90
8172;DHT22;4127;47.908;10.850;2023-10-31T08:23:42;8.70;99.90
8172;DHT22;4127;47.908;10.850;2023-10-31T08:26:11;8.70;99.90
8172;DHT22;4127;47.908;10.850;2023-10-31T08:28:39;8.70;99.90
8172;DHT22;4127;47.908;10.850;2023-10-31T08:31:07;8.80;99.90
8172;DHT22;4127;47.908;10.850;2023-10-31T08:33:34;8.80;99.90
8172;DHT22;4127;47.908;10.850;2023-10-31T08:36:01;8.80;99.90
8172;DHT22;4127;47.908;10.850;2023-10-31T08:38:28;8.90;99.90
8172;DHT22;4127;47.908;10.850;2023-10-31T08:40:58;8.90;99.90
8172;DHT22;4127;47.908;10.850;2023-10-31T08:43:26;9.00;99.90
8172;DHT22;4127;47.908;10.850;2023-10-31T08:45:54;9.00;99.90
8172;DHT22;4127;47.908;10.850;2023-10-31T08:48:21;8.90;99.90
8172;DHT22;4127;47.908;10.850;2023-10-31T08:50:48;9.00;99.90
8172;DHT22;4127;47.908;10.850;2023-10-31T08:53:15;9.00;99.90
8172;DHT22;4127;47.908;10.850;2023-10-31T08:55:43;9.00;99.90
8172;DHT22;4127;47.908;10.850;2023-10-31T08:58:13;9.00;99.90
8172;DHT22;4127;47.908;10.850;2023-10-31T09:00:40;9.10;99.90
8172;DHT22;4127;47.908;10.850;2023-10-31T09:03:08;9.10;99.90
8172;DHT22;4127;47.908;10.850;2023-10-31T09:05:35;9.10;99.90
8172;DHT22;4127;47.908;10.850;2023-10-31T09:08:02;9.10;99.90
8172;DHT22;4127;47.908;10.850;2023-10-31T09:10:29;9.20;99.90
8172;DHT22;4127;47.908;10.850;2023-10-31T09:12:56;9.20;99.90
8172;DHT22;4127;47.908;10.850;2023-10-31T09:15:23;9.30;99.90
8172;DHT22;4127;47.908;10.850;2023-10-31T09:17:50;9.30;99.90
8172;DHT22;4127;47.908;10.850;2023-10-31T09:20:18;9.30;99.90
8172;DHT22;4127;47.908;10.850;2023-10-31T09:22:45;9.30;99.90
8172;DHT22;4127;47.908;10.850;2023-10-31T09:25:12;9.30;99.90
8172;DHT22;4127;47.908;10.850;2023-10-31T09:27:42;9.40;99.90
8172;DHT22;4127;47.908;10.850;2023-10-31T09:30:09;9.40;99.90
8172;DHT22;4127;47.908;10.850;2023-10-31T09:32:36;9.40;99.90
8172;DHT22;4127;47.908;10.850;2023-10-31T09:35:03;9.40;99.90
8172;DHT22;4127;47.908;10.850;2023-10-31T09:37:31;9.50;99.90
8172;DHT22;4127;47.908;10.850;2023-10-31T09:39:58;9.50;99.90
8172;DHT22;4127;47.908;10.850;2023-10-31T09:42:25;9.50;99.90
8172;DHT22;4127;47.908;10.850;2023-10-31T09:44:52;9.50;99.90
8172;DHT22;4127;47.908;10.850;2023-10-31T09:47:20;9.50;99.90
8172;DHT22;4127;47.908;10.850;2023-10-31T09:49:47;9.60;99.90
8172;DHT22;4127;47.908;10.850;2023-10-31T09:52:14;9.60;99.90
8172;DHT22;4127;47.908;10.850;2023-10-31T09:54:41;9.70;99.90
8172;DHT22;4127;47.908;10.850;2023-10-31T09:57:13;9.70;99.90
8172;DHT22;4127;47.908;10.850;2023-10-31T09:59:41;9.80;99.90
8172;DHT22;4127;47.908;10.850;2023-10-31T10:02:08;9.80;99.90
8172;DHT22;4127;47.908;10.850;2023-10-31T10:04:36;9.70;99.90
8172;DHT22;4127;47.908;10.850;2023-10-31T10:07:04;9.80;99.90
8172;DHT22;4127;47.908;10.850;2023-10-31T10:09:31;9.80;99.90
8172;DHT22;4127;47.908;10.850;2023-10-31T10:12:01;9.90;99.90
8172;DHT22;4127;47.908;10.850;2023-10-31T10:14:28;10.00;99.90
8172;DHT22;4127;47.908;10.850;2023-10-31T10:16:59;10.10;99.90
8172;DHT22;4127;47.908;10.850;2023-10-31T10:19:26;10.00;99.90
8172;DHT22;4127;47.908;10.850;2023-10-31T10:21:57;10.00;99.90
8172;DHT22;4127;47.908;10.850;2023-10-31T10:24:25;10.00;99.90
8172;DHT22;4127;47.908;10.850;2023-10-31T10:26:52;10.00;99.90
8172;DHT22;4127;47.908;10.850;2023-10-31T10:29:19;10.00;99.90
8172;DHT22;4127;47.908;10.850;2023-10-31T10:31:46;10.00;99.90
8172;DHT22;4127;47.908;10.850;2023-10-31T10:34:17;9.90;99.90
8172;DHT22;4127;47.908;10.850;2023-10-31T10:36:49;9.90;99.90
8172;DHT22;4127;47.908;10.850;2023-10-31T10:39:21;9.90;99.90
8172;DHT22;4127;47.908;10.850;2023-10-31T10:41:53;9.90;99.90
8172;DHT22;4127;47.908;10.850;2023-10-31T10:44:34;9.90;99.90
8172;DHT22;4127;47.908;10.850;2023-10-31T10:47:03;10.00;99.90
8172;DHT22;4127;47.908;10.850;2023-10-31T10:49:35;10.00;99.90
8172;DHT22;4127;47.908;10.850;2023-10-31T10:52:27;9.90;99.90
8172;DHT22;4127;47.908;10.850;2023-10-31T10:55:06;10.00;99.90
8172;DHT22;4127;47.908;10.850;2023-10-31T11:00:12;10.00;99.90
8172;DHT22;4127;47.908;10.850;2023-10-31T11:02:40;10.10;99.90
8172;DHT22;4127;47.908;10.850;2023-10-31T11:05:10;10.20;99.90
8172;DHT22;4127;47.908;10.850;2023-10-31T11:07:37;10.00;99.90
8172;DHT22;4127;47.908;10.850;2023-10-31T11:10:05;9.80;99.90
8172;DHT22;4127;47.908;10.850;2023-10-31T11:12:34;9.80;99.90
8172;DHT22;4127;47.908;10.850;2023-10-31T11:15:02;9.80;99.90
8172;DHT22;4127;47.908;10.850;2023-10-31T11:17:33;9.90;99.90
8172;DHT22;4127;47.908;10.850;2023-10-31T11:20:02;9.80;99.90
8172;DHT22;4127;47.908;10.850;2023-10-31T11:22:39;9.90;99.90
8172;DHT22;4127;47.908;10.850;2023-10-31T11:25:15;9.80;99.90
8172;DHT22;4127;47.908;10.850;2023-10-31T11:28:10;9.80;99.90
8172;DHT22;4127;47.908;10.850;2023-10-31T11:30:37;9.70;99.90
8172;DHT22;4127;47.908;10.850;2023-10-31T11:33:04;9.60;99.90
8172;DHT22;4127;47.908;10.850;2023-10-31T11:35:36;9.50;99.90
8172;DHT22;4127;47.908;10.850;2023-10-31T11:38:09;9.40;99.90
8172;DHT22;4127;47.908;10.850;2023-10-31T11:40:59;9.40;99.90
8172;DHT22;4127;47.908;10.850;2023-10-31T11:46:18;9.20;99.90
8172;DHT22;4127;47.908;10.850;2023-10-31T11:48:48;9.20;99.90
8172;DHT22;4127;47.908;10.850;2023-10-31T11:51:17;9.20;99.90
8172;DHT22;4127;47.908;10.850;2023-10-31T11:53:44;9.30;99.90
8172;DHT22;4127;47.908;10.850;2023-10-31T11:56:12;9.40;99.90
8172;DHT22;4127;47.908;10.850;2023-10-31T11:58:39;9.50;99.90
8172;DHT22;4127;47.908;10.850;2023-10-31T12:01:10;9.50;99.90
8172;DHT22;4127;47.908;10.850;2023-10-31T12:03:42;9.60;99.90
8172;DHT22;4127;47.908;10.850;2023-10-31T12:06:10;9.60;99.90
8172;DHT22;4127;47.908;10.850;2023-10-31T12:08:39;9.50;99.90
8172;DHT22;4127;47.908;10.850;2023-10-31T12:11:15;9.60;99.90
8172;DHT22;4127;47.908;10.850;2023-10-31T12:14:02;9.60;99.90
8172;DHT22;4127;47.908;10.850;2023-10-31T12:16:34;9.60;99.90
8172;DHT22;4127;47.908;10.850;2023-10-31T12:19:03;9.40;99.90
8172;DHT22;4127;47.908;10.850;2023-10-31T12:24:08;9.30;99.90
8172;DHT22;4127;47.908;10.850;2023-10-31T12:26:35;9.30;99.90
8172;DHT22;4127;47.908;10.850;2023-10-31T12:29:10;9.40;99.90
8172;DHT22;4127;47.908;10.850;2023-10-31T12:34:22;9.20;99.90
8172;DHT22;4127;47.908;10.850;2023-10-31T12:36:51;9.20;99.90
8172;DHT22;4127;47.908;10.850;2023-10-31T12:39:22;9.20;99.90
8172;DHT22;4127;47.908;10.850;2023-10-31T12:41:51;9.40;99.90
8172;DHT22;4127;47.908;10.850;2023-10-31T12:44:23;9.40;99.90
8172;DHT22;4127;47.908;10.850;2023-10-31T12:46:52;9.40;99.90
8172;DHT22;4127;47.908;10.850;2023-10-31T12:49:19;9.40;99.90
8172;DHT22;4127;47.908;10.850;2023-10-31T12:51:59;9.50;99.90
8172;DHT22;4127;47.908;10.850;2023-10-31T12:54:28;9.60;99.90
8172;DHT22;4127;47.908;10.850;2023-10-31T12:57:06;9.70;99.90
8172;DHT22;4127;47.908;10.850;2023-10-31T12:59:35;9.70;99.90
8172;DHT22;4127;47.908;10.850;2023-10-31T13:02:06;9.80;99.90
8172;DHT22;4127;47.908;10.850;2023-10-31T13:04:33;9.80;99.90
8172;DHT22;4127;47.908;10.850;2023-10-31T13:07:05;9.80;99.90
8172;DHT22;4127;47.908;10.850;2023-10-31T13:09:36;9.80;99.90
8172;DHT22;4127;47.908;10.850;2023-10-31T13:12:06;9.80;99.90
8172;DHT22;4127;47.908;10.850;2023-10-31T13:14:34;9.80;99.90
8172;DHT22;4127;47.908;10.850;2023-10-31T13:17:03;9.80;99.90
8172;DHT22;4127;47.908;10.850;2023-10-31T13:19:31;9.80;99.90
8172;DHT22;4127;47.908;10.850;2023-10-31T13:21:58;9.80;99.90
8172;DHT22;4127;47.908;10.850;2023-10-31T13:24:25;9.70;99.90
8172;DHT22;4127;47.908;10.850;2023-10-31T13:26:51;9.70;99.90
8172;DHT22;4127;47.908;10.850;2023-10-31T13:29:22;9.70;99.90
8172;DHT22;4127;47.908;10.850;2023-10-31T13:31:52;9.80;99.90
8172;DHT22;4127;47.908;10.850;2023-10-31T13:34:19;9.80;99.90
8172;DHT22;4127;47.908;10.850;2023-10-31T13:36:46;9.80;99.90
8172;DHT22;4127;47.908;10.850;2023-10-31T13:39:18;9.80;99.90
8172;DHT22;4127;47.908;10.850;2023-10-31T13:41:45;9.80;99.90
8172;DHT22;4127;47.908;10.850;2023-10-31T13:44:12;9.80;99.90
8172;DHT22;4127;47.908;10.850;2023-10-31T13:46:39;9.80;99.90
8172;DHT22;4127;47.908;10.850;2023-10-31T13:49:06;9.80;99.90
8172;DHT22;4127;47.908;10.850;2023-10-31T13:51:34;9.90;99.90
8172;DHT22;4127;47.908;10.850;2023-10-31T13:54:01;9.90;99.90
8172;DHT22;4127;47.908;10.850;2023-10-31T13:56:29;9.90;99.90
8172;DHT22;4127;47.908;10.850;2023-10-31T13:58:57;9.90;99.90
8172;DHT22;4127;47.908;10.850;2023-10-31T14:01:24;10.00;99.90
8172;DHT22;4127;47.908;10.850;2023-10-31T14:03:52;10.00;99.90
8172;DHT22;4127;47.908;10.850;2023-10-31T14:06:19;10.10;99.90
8172;DHT22;4127;47.908;10.850;2023-10-31T14:08:46;10.10;99.90
8172;DHT22;4127;47.908;10.850;2023-10-31T14:11:13;10.10;99.90
8172;DHT22;4127;47.908;10.850;2023-10-31T14:13:40;10.00;99.90
8172;DHT22;4127;47.908;10.850;2023-10-31T14:16:10;10.10;99.90
8172;DHT22;4127;47.908;10.850;2023-10-31T14:18:38;10.10;99.90
8172;DHT22;4127;47.908;10.850;2023-10-31T14:21:05;10.00;99.90
8172;DHT22;4127;47.908;10.850;2023-10-31T14:23:32;10.00;99.90
8172;DHT22;4127;47.908;10.850;2023-10-31T14:25:59;9.90;99.90
8172;DHT22;4127;47.908;10.850;2023-10-31T14:28:26;9.90;99.90
8172;DHT22;4127;47.908;10.850;2023-10-31T14:30:53;9.90;99.90
8172;DHT22;4127;47.908;10.850;2023-10-31T14:33:20;9.80;99.90
8172;DHT22;4127;47.908;10.850;2023-10-31T14:35:48;9.80;99.90
8172;DHT22;4127;47.908;10.850;2023-10-31T14:38:15;9.90;99.90
8172;DHT22;4127;47.908;10.850;2023-10-31T14:40:42;10.00;99.90
8172;DHT22;4127;47.908;10.850;2023-10-31T14:43:09;10.00;99.90
8172;DHT22;4127;47.908;10.850;2023-10-31T14:45:36;10.00;99.90
8172;DHT22;4127;47.908;10.850;2023-10-31T14:48:03;10.10;99.90
8172;DHT22;4127;47.908;10.850;2023-10-31T14:50:30;10.10;99.90
8172;DHT22;4127;47.908;10.850;2023-10-31T14:52:57;10.20;99.90
8172;DHT22;4127;47.908;10.850;2023-10-31T14:55:25;10.30;99.90
8172;DHT22;4127;47.908;10.850;2023-10-31T14:57:51;10.30;99.90
8172;DHT22;4127;47.908;10.850;2023-10-31T15:00:18;10.30;99.90
8172;DHT22;4127;47.908;10.850;2023-10-31T15:02:45;10.30;99.90
8172;DHT22;4127;47.908;10.850;2023-10-31T15:05:12;10.40;99.90
8172;DHT22;4127;47.908;10.850;2023-10-31T15:07:39;10.30;99.90
8172;DHT22;4127;47.908;10.850;2023-10-31T15:10:07;10.30;99.90
8172;DHT22;4127;47.908;10.850;2023-10-31T15:12:34;10.30;99.90
8172;DHT22;4127;47.908;10.850;2023-10-31T15:15:01;10.20;99.90
8172;DHT22;4127;47.908;10.850;2023-10-31T15:17:28;10.20;99.90
8172;DHT22;4127;47.908;10.850;2023-10-31T15:19:55;10.10;99.90
8172;DHT22;4127;47.908;10.850;2023-10-31T15:22:22;10.00;99.90
8172;DHT22;4127;47.908;10.850;2023-10-31T15:24:49;9.90;99.90
8172;DHT22;4127;47.908;10.850;2023-10-31T15:27:16;9.90;99.90
8172;DHT22;4127;47.908;10.850;2023-10-31T15:29:44;9.80;99.90
8172;DHT22;4127;47.908;10.850;2023-10-31T15:32:12;9.80;99.90
8172;DHT22;4127;47.908;10.850;2023-10-31T15:34:39;9.70;99.90
8172;DHT22;4127;47.908;10.850;2023-10-31T15:37:09;9.60;99.90
8172;DHT22;4127;47.908;10.850;2023-10-31T15:39:38;9.50;99.90
8172;DHT22;4127;47.908;10.850;2023-10-31T15:42:09;9.50;99.90
8172;DHT22;4127;47.908;10.850;2023-10-31T15:44:37;9.40;99.90
8172;DHT22;4127;47.908;10.850;2023-10-31T15:47:06;9.40;99.90
8172;DHT22;4127;47.908;10.850;2023-10-31T15:49:34;9.30;99.90
8172;DHT22;4127;47.908;10.850;2023-10-31T15:52:01;9.30;99.90
8172;DHT22;4127;47.908;10.850;2023-10-31T15:54:28;9.30;99.90
8172;DHT22;4127;47.908;10.850;2023-10-31T15:56:55;9.30;99.90
8172;DHT22;4127;47.908;10.850;2023-10-31T15:59:22;9.30;99.90
8172;DHT22;4127;47.908;10.850;2023-10-31T16:01:50;9.30;99.90
8172;DHT22;4127;47.908;10.850;2023-10-31T16:04:16;9.30;99.90
8172;DHT22;4127;47.908;10.850;2023-10-31T16:06:43;9.30;99.90
8172;DHT22;4127;47.908;10.850;2023-10-31T16:09:10;9.30;99.90
8172;DHT22;4127;47.908;10.850;2023-10-31T16:11:37;9.40;99.90
8172;DHT22;4127;47.908;10.850;2023-10-31T16:14:04;9.40;99.90